createdAt,value
2018-08-11T00:00:49.774Z,69.44
2018-08-11T00:03:19.752Z,69.26
2018-08-11T00:05:49.634Z,69.73
2018-08-11T00:08:19.930Z,69.77
2018-08-11T00:10:49.926Z,69.76
2018-08-11T00:13:19.778Z,70.03
2018-08-11T00:15:55.594Z,70.31
2018-08-11T00:18:25.630Z,70.16
2018-08-11T00:20:56.230Z,70.58
2018-08-11T00:23:26.168Z,70.88
2018-08-11T00:25:56.098Z,71.32
2018-08-11T00:28:26.410Z,70.55
2018-08-11T00:30:56.569Z,70.44
2018-08-11T00:33:26.597Z,70.63
2018-08-11T00:35:57.105Z,70.60
2018-08-11T00:38:27.431Z,70.64
2018-08-11T00:40:57.660Z,70.35
2018-08-11T00:43:27.727Z,70.46
2018-08-11T00:45:57.799Z,70.48
2018-08-11T00:48:27.666Z,70.71
2018-08-11T00:50:57.625Z,70.77
2018-08-11T00:53:27.692Z,71.13
2018-08-11T00:55:57.721Z,71.28
2018-08-11T00:58:27.827Z,71.08
2018-08-11T01:00:57.832Z,71.55
2018-08-11T01:03:27.871Z,71.33
2018-08-11T01:05:57.926Z,71.06
2018-08-11T01:08:28.006Z,71.07
2018-08-11T01:10:57.907Z,70.97
2018-08-11T01:13:27.989Z,72.35
2018-08-11T01:15:58.045Z,71.52
2018-08-11T01:18:27.893Z,71.94
2018-08-11T01:20:57.885Z,72.79
2018-08-11T01:23:27.966Z,71.95
2018-08-11T01:25:57.925Z,72.08
2018-08-11T01:28:27.780Z,72.30
2018-08-11T01:30:57.887Z,72.39
2018-08-11T01:33:27.901Z,72.17
2018-08-11T01:35:57.805Z,72.12
2018-08-11T01:38:28.078Z,72.09
2018-08-11T01:40:58.177Z,71.95
2018-08-11T01:43:28.657Z,72.11
2018-08-11T01:45:58.545Z,72.10
2018-08-11T01:48:28.882Z,72.17
2018-08-11T01:50:58.983Z,72.40
2018-08-11T01:53:28.843Z,72.62
2018-08-11T01:55:59.091Z,72.39
2018-08-11T01:58:28.959Z,72.10
2018-08-11T02:00:58.969Z,72.05
2018-08-11T02:03:28.913Z,72.55
2018-08-11T02:05:59.166Z,72.25
2018-08-11T02:08:29.212Z,72.31
2018-08-11T02:10:59.020Z,72.69
2018-08-11T02:13:29.198Z,72.62
2018-08-11T02:15:59.166Z,73.33
2018-08-11T02:18:29.060Z,72.65
2018-08-11T02:20:59.362Z,72.92
2018-08-11T02:23:29.245Z,73.52
2018-08-11T02:26:00.125Z,72.61
2018-08-11T02:28:31.169Z,73.22
2018-08-11T02:31:02.268Z,73.98
2018-08-11T02:33:33.120Z,73.82
2018-08-11T02:36:04.284Z,73.79
2018-08-11T02:38:35.069Z,73.89
2018-08-11T02:41:06.375Z,73.64
2018-08-11T02:43:37.018Z,74.01
2018-08-11T02:46:08.458Z,74.65
2018-08-11T02:48:38.976Z,74.43
2018-08-11T02:51:10.387Z,75.19
2018-08-11T02:53:41.170Z,74.92
2018-08-11T02:56:12.137Z,75.08
2018-08-11T02:58:43.156Z,76.65
2018-08-11T03:01:14.129Z,76.77
2018-08-11T03:03:45.073Z,76.97
2018-08-11T03:06:16.354Z,77.16
2018-08-11T03:08:46.974Z,77.82
2018-08-11T03:11:18.561Z,77.27
2018-08-11T03:13:49.078Z,76.79
2018-08-11T03:16:20.497Z,76.99
2018-08-11T03:18:51.040Z,78.21
2018-08-11T03:21:22.768Z,77.22
2018-08-11T03:23:53.100Z,77.71
2018-08-11T03:26:23.120Z,78.22
2018-08-11T03:28:54.911Z,77.85
2018-08-11T03:31:25.569Z,78.02
2018-08-11T03:33:56.165Z,78.53
2018-08-11T03:36:27.170Z,78.41
2018-08-11T03:38:58.083Z,78.58
2018-08-11T03:41:28.981Z,79.40
2018-08-11T03:44:00.461Z,78.61
2018-08-11T03:46:30.988Z,78.96
2018-08-11T03:49:02.407Z,79.27
2018-08-11T03:51:33.117Z,78.81
2018-08-11T03:54:10.066Z,78.37
2018-08-11T03:56:39.872Z,78.94
2018-08-11T03:59:09.869Z,79.43
2018-08-11T04:01:39.819Z,79.00
2018-08-11T04:04:10.931Z,78.32
2018-08-11T04:06:40.873Z,78.47
2018-08-11T04:09:11.414Z,79.61
2018-08-11T04:11:41.273Z,79.41
2018-08-11T04:14:12.011Z,79.11
2018-08-11T04:16:43.408Z,78.99
2018-08-11T04:19:13.981Z,79.96
2018-08-11T04:21:45.602Z,80.09
2018-08-11T04:24:16.086Z,81.89
2018-08-11T04:26:47.228Z,82.05
2018-08-11T04:29:18.161Z,81.38
2018-08-11T04:31:48.760Z,82.32
2018-08-11T04:34:19.263Z,82.37
2018-08-11T04:36:50.219Z,81.07
2018-08-11T04:39:21.009Z,81.76
2018-08-11T04:41:52.442Z,81.45
2018-08-11T04:44:22.997Z,81.94
2018-08-11T04:46:54.374Z,82.06
2018-08-11T04:49:25.115Z,81.65
2018-08-11T04:51:56.090Z,80.87
2018-08-11T04:54:27.320Z,80.77
2018-08-11T04:56:58.233Z,81.28
2018-08-11T04:59:29.044Z,81.12
2018-08-11T05:02:00.059Z,80.23
2018-08-11T05:04:31.776Z,80.35
2018-08-11T05:07:02.351Z,80.08
2018-08-11T05:09:33.055Z,79.94
2018-08-11T05:12:04.437Z,79.85
2018-08-11T05:14:35.210Z,79.92
2018-08-11T05:17:06.992Z,80.54
2018-08-11T05:19:37.264Z,79.54
2018-08-11T05:22:08.206Z,79.58
2018-08-11T05:24:38.976Z,79.52
2018-08-11T05:27:10.478Z,79.15
2018-08-11T05:29:40.984Z,79.44
2018-08-11T05:32:11.602Z,79.89
2018-08-11T05:34:42.073Z,79.67
2018-08-11T05:37:13.273Z,80.48
2018-08-11T05:39:43.951Z,79.76
2018-08-11T05:42:15.460Z,79.41
2018-08-11T05:44:45.937Z,79.37
2018-08-11T05:47:17.382Z,80.12
2018-08-11T05:49:47.987Z,80.03
2018-08-11T05:52:19.348Z,80.03
2018-08-11T05:54:49.879Z,80.08
2018-08-11T05:57:21.406Z,80.77
2018-08-11T05:59:51.924Z,80.59
2018-08-11T06:02:23.358Z,79.91
2018-08-11T06:04:54.095Z,79.76
2018-08-11T06:07:25.545Z,79.76
2018-08-11T06:09:56.197Z,80.27
2018-08-11T06:12:28.297Z,79.33
2018-08-11T06:14:58.248Z,80.57
2018-08-11T06:17:29.404Z,80.55
2018-08-11T06:20:00.146Z,80.34
2018-08-11T06:22:31.080Z,80.39
2018-08-11T06:25:02.170Z,81.95
2018-08-11T06:27:33.121Z,79.74
2018-08-11T06:30:04.299Z,79.88
2018-08-11T06:32:35.330Z,80.00
2018-08-11T06:35:06.760Z,79.74
2018-08-11T06:37:38.300Z,79.54
2018-08-11T06:40:08.557Z,79.25
2018-08-11T06:42:39.195Z,79.29
2018-08-11T06:45:10.151Z,80.17
2018-08-11T06:47:41.233Z,79.66
2018-08-11T06:50:12.270Z,79.58
2018-08-11T06:52:43.455Z,79.70
2018-08-11T06:55:14.392Z,79.95
2018-08-11T06:57:45.129Z,79.79
2018-08-11T07:00:17.512Z,79.14
2018-08-11T07:02:47.683Z,79.29
2018-08-11T07:05:18.388Z,78.72
2018-08-11T07:07:49.593Z,79.03
2018-08-11T07:10:20.257Z,79.06
2018-08-11T07:12:51.306Z,78.33
2018-08-11T07:15:22.164Z,78.33
2018-08-11T07:17:53.418Z,77.11
2018-08-11T07:20:23.844Z,77.55
2018-08-11T07:22:54.842Z,77.32
2018-08-11T07:25:25.433Z,76.41
2018-08-11T07:27:56.384Z,75.27
2018-08-11T07:30:27.596Z,74.65
2018-08-11T07:32:58.690Z,74.87
2018-08-11T07:35:29.377Z,74.19
2018-08-11T07:38:00.597Z,74.05
2018-08-11T07:40:31.054Z,73.84
2018-08-11T07:43:02.574Z,73.92
2018-08-11T07:45:33.415Z,73.19
2018-08-11T07:48:04.366Z,72.84
2018-08-11T07:50:35.066Z,72.34
2018-08-11T07:53:06.845Z,71.58
2018-08-11T07:55:37.321Z,71.69
2018-08-11T07:58:08.749Z,70.74
2018-08-11T08:00:39.251Z,70.66
2018-08-11T08:03:10.075Z,69.62
2018-08-11T08:05:40.993Z,68.34
2018-08-11T08:08:12.467Z,69.45
2018-08-11T08:10:43.029Z,68.80
2018-08-11T08:13:14.693Z,68.31
2018-08-11T08:15:45.697Z,68.08
2018-08-11T08:18:17.283Z,66.31
2018-08-11T08:20:47.326Z,65.63
2018-08-11T08:23:19.097Z,65.21
2018-08-11T08:25:50.031Z,64.50
2018-08-11T08:28:20.273Z,64.41
2018-08-11T08:30:51.108Z,64.31
2018-08-11T08:33:27.294Z,64.85
2018-08-11T08:35:57.340Z,63.48
2018-08-11T08:38:27.882Z,64.00
2018-08-11T08:40:57.748Z,62.79
2018-08-11T08:43:28.018Z,61.94
2018-08-11T08:45:58.141Z,61.87
2018-08-11T08:48:28.234Z,62.66
2018-08-11T08:50:59.014Z,60.96
2018-08-11T08:53:30.297Z,60.37
2018-08-11T08:56:01.029Z,60.16
2018-08-11T08:58:32.001Z,59.76
2018-08-11T09:01:03.201Z,59.52
2018-08-11T09:03:34.025Z,58.31
2018-08-11T09:06:05.114Z,57.99
2018-08-11T09:08:36.131Z,55.16
2018-08-11T09:11:07.489Z,54.72
2018-08-11T09:13:38.107Z,53.41
2018-08-11T09:16:09.877Z,53.68
2018-08-11T09:18:40.627Z,53.80
2018-08-11T09:21:11.217Z,50.63
2018-08-11T09:23:42.172Z,50.33
2018-08-11T09:26:13.053Z,50.81
2018-08-11T09:28:44.316Z,52.20
2018-08-11T09:31:14.903Z,52.48
2018-08-11T09:33:45.416Z,52.32
2018-08-11T09:36:16.137Z,52.67
2018-08-11T09:38:47.226Z,53.45
2018-08-11T09:41:18.372Z,52.55
2018-08-11T09:43:48.948Z,52.51
2018-08-11T09:46:20.538Z,52.76
2018-08-11T09:48:51.006Z,50.78
2018-08-11T09:51:22.381Z,50.70
2018-08-11T09:53:52.976Z,50.50
2018-08-11T09:56:24.510Z,50.52
2018-08-11T09:58:55.391Z,50.12
2018-08-11T10:01:31.073Z,49.39
2018-08-11T10:04:00.890Z,47.88
2018-08-11T10:06:30.818Z,47.16
2018-08-11T10:09:01.250Z,46.87
2018-08-11T10:11:31.573Z,46.80
2018-08-11T10:14:01.443Z,47.15
2018-08-11T10:16:32.057Z,46.85
2018-08-11T10:19:03.257Z,46.83
2018-08-11T10:21:33.992Z,46.28
2018-08-11T10:24:05.335Z,42.81
2018-08-11T10:26:35.997Z,41.43
2018-08-11T10:29:07.413Z,39.66
2018-08-11T10:31:37.841Z,40.42
2018-08-11T10:34:08.370Z,40.42
2018-08-11T10:36:38.921Z,38.46
2018-08-11T10:39:13.528Z,39.37
2018-08-11T10:41:43.813Z,38.31
2018-08-11T10:44:13.855Z,37.78
2018-08-11T10:46:43.739Z,37.82
2018-08-11T10:49:14.149Z,38.22
2018-08-11T10:51:45.120Z,38.09
2018-08-11T10:54:15.949Z,37.30
2018-08-11T10:56:47.512Z,38.16
2018-08-11T10:59:18.036Z,37.55
2018-08-11T11:01:49.090Z,36.79
2018-08-11T11:04:20.032Z,36.25
2018-08-11T11:06:51.238Z,33.35
2018-08-11T11:09:22.078Z,34.01
2018-08-11T11:11:53.026Z,31.96
2018-08-11T11:14:24.013Z,31.55
2018-08-11T11:16:54.994Z,31.49
2018-08-11T11:19:25.968Z,31.80
2018-08-11T11:21:57.146Z,32.59
2018-08-11T11:24:27.931Z,31.90
2018-08-11T11:26:59.428Z,32.57
2018-08-11T11:29:30.000Z,31.64
2018-08-11T11:32:00.656Z,31.54
2018-08-11T11:34:31.139Z,31.00
2018-08-11T11:37:02.326Z,30.22
2018-08-11T11:39:33.128Z,30.12
2018-08-11T11:42:04.062Z,30.44
2018-08-11T11:44:35.139Z,28.94
2018-08-11T11:47:06.252Z,29.03
2018-08-11T11:49:37.006Z,28.81
2018-08-11T11:52:08.443Z,27.67
2018-08-11T11:54:38.947Z,26.87
2018-08-11T11:57:10.990Z,26.99
2018-08-11T11:59:40.944Z,27.93
2018-08-11T12:02:12.674Z,28.24
2018-08-11T12:04:43.310Z,27.06
2018-08-11T12:07:14.442Z,25.94
2018-08-11T12:09:45.616Z,26.50
2018-08-11T12:12:17.558Z,26.64
2018-08-11T12:14:47.387Z,26.87
2018-08-11T12:17:18.036Z,26.16
2018-08-11T12:19:49.193Z,25.70
2018-08-11T12:22:20.363Z,26.75
2018-08-11T12:24:51.106Z,26.25
2018-08-11T12:27:21.953Z,27.27
2018-08-11T12:29:53.343Z,27.18
2018-08-11T12:32:23.960Z,26.29
2018-08-11T12:34:55.307Z,27.05
2018-08-11T12:37:26.044Z,26.64
2018-08-11T12:39:57.494Z,26.76
2018-08-11T12:42:28.191Z,27.53
2018-08-11T12:45:04.200Z,27.00
2018-08-11T12:47:35.841Z,25.88
2018-08-11T12:50:06.189Z,26.37
2018-08-11T12:52:36.182Z,25.93
2018-08-11T12:55:06.549Z,26.93
2018-08-11T12:57:37.710Z,27.75
2018-08-11T13:00:09.355Z,27.61
2018-08-11T13:02:39.587Z,27.86
2018-08-11T13:05:09.670Z,27.24
2018-08-11T13:07:39.743Z,27.24
2018-08-11T13:10:09.940Z,26.99
2018-08-11T13:12:39.817Z,26.15
2018-08-11T13:15:11.717Z,26.24
2018-08-11T13:17:41.486Z,26.17
2018-08-11T13:20:12.117Z,26.80
2018-08-11T13:22:43.321Z,27.32
2018-08-11T13:25:13.910Z,27.79
2018-08-11T13:27:45.265Z,28.22
2018-08-11T13:30:16.012Z,28.51
2018-08-11T13:32:47.228Z,28.76
2018-08-11T13:35:17.860Z,27.75
2018-08-11T13:37:49.332Z,27.58
2018-08-11T13:40:20.093Z,26.68
2018-08-11T13:42:51.121Z,26.37
2018-08-11T13:45:22.775Z,24.64
2018-08-11T13:47:53.333Z,23.83
2018-08-11T13:50:23.869Z,24.86
2018-08-11T13:52:55.382Z,24.71
2018-08-11T13:55:25.919Z,25.40
2018-08-11T13:57:57.753Z,24.33
2018-08-11T14:00:28.434Z,25.17
2018-08-11T14:02:59.161Z,26.16
2018-08-11T14:05:30.284Z,30.71
2018-08-11T14:08:01.008Z,34.09
2018-08-11T14:10:32.045Z,35.75
2018-08-11T14:13:04.066Z,35.65
2018-08-11T14:15:33.954Z,35.60
2018-08-11T14:18:05.758Z,35.92
2018-08-11T14:20:36.324Z,37.24
2018-08-11T14:23:07.305Z,36.65
2018-08-11T14:25:38.085Z,37.36
2018-08-11T14:28:09.041Z,37.46
2018-08-11T14:30:40.007Z,37.11
2018-08-11T14:33:11.265Z,36.50
2018-08-11T14:35:43.708Z,37.02
2018-08-11T14:38:13.594Z,37.80
2018-08-11T14:40:44.388Z,37.64
2018-08-11T14:43:14.966Z,38.09
2018-08-11T14:45:46.522Z,38.34
2018-08-11T14:48:17.118Z,38.20
2018-08-11T14:50:48.601Z,37.52
2018-08-11T14:53:19.254Z,37.11
2018-08-11T14:55:50.198Z,38.54
2018-08-11T14:58:21.177Z,37.61
2018-08-11T15:00:52.666Z,37.13
2018-08-11T15:03:23.310Z,37.18
2018-08-11T15:05:54.258Z,38.37
2018-08-11T15:08:25.140Z,38.28
2018-08-11T15:10:57.641Z,38.94
2018-08-11T15:13:27.470Z,39.13
2018-08-11T15:15:57.884Z,39.89
2018-08-11T15:18:28.766Z,40.49
2018-08-11T15:21:00.097Z,40.13
2018-08-11T15:23:30.836Z,40.51
2018-08-11T15:26:02.075Z,40.53
2018-08-11T15:28:33.013Z,40.02
2018-08-11T15:31:03.721Z,40.50
2018-08-11T15:33:36.261Z,40.82
2018-08-11T15:36:06.960Z,41.46
2018-08-11T15:38:36.700Z,41.02
2018-08-11T15:41:08.448Z,41.31
2018-08-11T15:43:38.759Z,41.15
2018-08-11T15:46:10.031Z,41.71
2018-08-11T15:48:40.959Z,41.14
2018-08-11T15:51:11.950Z,40.90
2018-08-11T15:53:43.026Z,40.65
2018-08-11T15:56:14.282Z,40.99
2018-08-11T15:58:45.377Z,41.03
2018-08-11T16:01:16.086Z,42.06
2018-08-11T16:03:47.158Z,42.33
2018-08-11T16:06:18.101Z,42.01
2018-08-11T16:08:49.041Z,41.48
2018-08-11T16:11:20.232Z,41.50
2018-08-11T16:13:50.918Z,42.00
2018-08-11T16:16:22.420Z,41.93
2018-08-11T16:18:53.077Z,42.31
2018-08-11T16:21:24.048Z,42.29
2018-08-11T16:23:55.357Z,42.52
2018-08-11T16:26:26.236Z,42.47
2018-08-11T16:28:56.988Z,42.08
2018-08-11T16:31:27.700Z,41.89
2018-08-11T16:33:58.105Z,41.60
2018-08-11T16:36:29.348Z,41.83
2018-08-11T16:38:59.894Z,41.42
2018-08-11T16:41:31.749Z,40.83
2018-08-11T16:44:02.161Z,40.92
2018-08-11T16:46:33.052Z,41.18
2018-08-11T16:49:04.339Z,40.96
2018-08-11T16:51:35.252Z,40.82
2018-08-11T16:54:05.865Z,40.59
2018-08-11T16:56:37.641Z,41.17
2018-08-11T16:59:08.153Z,40.66
2018-08-11T17:01:39.322Z,41.28
2018-08-11T17:04:10.205Z,40.99
2018-08-11T17:06:41.064Z,41.19
2018-08-11T17:09:12.663Z,41.26
2018-08-11T17:11:43.185Z,40.90
2018-08-11T17:14:13.929Z,41.10
2018-08-11T17:16:45.348Z,40.92
2018-08-11T17:19:15.950Z,39.82
2018-08-11T17:21:47.361Z,40.29
2018-08-11T17:24:18.060Z,39.81
2018-08-11T17:26:49.120Z,39.67
2018-08-11T17:29:20.021Z,39.82
2018-08-11T17:31:50.733Z,40.23
2018-08-11T17:34:21.248Z,40.05
2018-08-11T17:36:52.456Z,40.07
2018-08-11T17:39:23.193Z,40.23
2018-08-11T17:41:54.159Z,40.08
2018-08-11T17:44:25.009Z,40.37
2018-08-11T17:46:56.824Z,40.11
2018-08-11T17:49:27.340Z,40.18
2018-08-11T17:51:58.173Z,40.41
2018-08-11T17:54:29.153Z,40.02
2018-08-11T17:57:00.603Z,39.66
2018-08-11T17:59:31.706Z,40.38
2018-08-11T18:02:02.617Z,40.26
2018-08-11T18:04:33.284Z,40.93
2018-08-11T18:07:04.443Z,41.15
2018-08-11T18:09:35.132Z,41.45
2018-08-11T18:12:06.075Z,41.85
2018-08-11T18:14:37.519Z,41.63
2018-08-11T18:17:08.366Z,41.73
2018-08-11T18:19:39.008Z,41.93
2018-08-11T18:22:11.652Z,42.58
2018-08-11T18:24:41.473Z,43.45
2018-08-11T18:27:12.103Z,44.33
2018-08-11T18:29:43.200Z,44.48
2018-08-11T18:32:14.096Z,45.04
2018-08-11T18:34:45.352Z,45.24
2018-08-11T18:37:16.081Z,45.12
2018-08-11T18:39:47.559Z,45.07
2018-08-11T18:42:36.105Z,45.14
2018-08-11T18:45:06.286Z,45.88
2018-08-11T18:47:36.484Z,46.08
2018-08-11T18:50:07.492Z,46.30
2018-08-11T18:52:37.520Z,46.08
2018-08-11T18:55:09.785Z,46.55
2018-08-11T18:57:39.776Z,47.15
2018-08-11T19:00:17.870Z,48.62
2018-08-11T19:02:48.018Z,49.12
2018-08-11T19:05:18.160Z,49.76
2018-08-11T19:07:48.222Z,50.10
2018-08-11T19:10:18.573Z,50.70
2018-08-11T19:12:48.729Z,50.67
2018-08-11T19:15:18.922Z,51.53
2018-08-11T19:17:49.113Z,51.34
2018-08-11T19:20:19.765Z,51.83
2018-08-11T19:22:49.805Z,52.07
2018-08-11T19:25:19.956Z,52.04
2018-08-11T19:27:50.311Z,52.57
2018-08-11T19:30:20.322Z,53.03
2018-08-11T19:32:50.223Z,53.15
2018-08-11T19:35:20.089Z,53.06
2018-08-11T19:37:50.435Z,52.85
2018-08-11T19:40:20.360Z,53.41
2018-08-11T19:42:51.482Z,53.31
2018-08-11T19:45:23.121Z,53.70
2018-08-11T19:47:53.255Z,54.25
2018-08-11T19:50:23.766Z,54.46
2018-08-11T19:52:54.212Z,54.77
2018-08-11T19:55:24.372Z,54.71
2018-08-11T19:57:54.856Z,54.80
2018-08-11T20:00:25.294Z,54.89
2018-08-11T20:02:55.395Z,54.58
2018-08-11T20:05:25.897Z,54.74
2018-08-11T20:07:56.365Z,54.76
2018-08-11T20:10:26.264Z,54.58
2018-08-11T20:12:56.226Z,54.67
2018-08-11T20:15:26.082Z,54.72
2018-08-11T20:17:56.029Z,54.42
2018-08-11T20:20:26.344Z,54.47
2018-08-11T20:22:57.097Z,54.70
2018-08-11T20:25:28.253Z,54.69
2018-08-11T20:27:59.321Z,54.90
2018-08-11T20:30:30.038Z,54.52
2018-08-11T20:33:01.848Z,55.15
2018-08-11T20:35:32.739Z,55.46
2018-08-11T20:38:03.809Z,55.63
2018-08-11T20:40:34.398Z,56.18
2018-08-11T20:43:05.353Z,56.48
2018-08-11T20:45:36.557Z,57.16
2018-08-11T20:48:07.499Z,57.11
2018-08-11T20:50:38.578Z,57.47
2018-08-11T20:53:09.618Z,57.81
2018-08-11T20:55:41.250Z,58.34
2018-08-11T20:58:11.334Z,58.92
2018-08-11T21:00:41.320Z,59.13
2018-08-11T21:03:13.256Z,59.27
2018-08-11T21:05:43.069Z,59.76
2018-08-11T21:08:14.434Z,60.82
2018-08-11T21:10:45.302Z,60.70
2018-08-11T21:13:16.569Z,61.49
2018-08-11T21:15:47.208Z,62.10
2018-08-11T21:18:18.141Z,62.15
2018-08-11T21:20:49.384Z,62.67
2018-08-11T21:23:20.267Z,62.21
2018-08-11T21:25:51.473Z,62.56
2018-08-11T21:28:22.856Z,62.31
2018-08-11T21:30:53.388Z,62.38
2018-08-11T21:33:23.335Z,62.70
2018-08-11T21:35:54.321Z,62.80
2018-08-11T21:38:24.893Z,62.51
2018-08-11T21:40:55.352Z,62.65
2018-08-11T21:43:26.268Z,62.39
2018-08-11T21:45:57.582Z,62.25
2018-08-11T21:48:28.503Z,62.16
2018-08-11T21:50:59.314Z,62.04
2018-08-11T21:53:30.135Z,61.91
2018-08-11T21:56:01.063Z,62.22
2018-08-11T21:58:32.272Z,62.47
2018-08-11T22:01:14.270Z,62.21
2018-08-11T22:03:45.925Z,62.38
2018-08-11T22:06:15.801Z,62.36
2018-08-11T22:08:45.941Z,62.95
2018-08-11T22:11:15.921Z,62.86
2018-08-11T22:13:45.734Z,63.28
2018-08-11T22:16:15.825Z,63.71
2018-08-11T22:18:45.883Z,63.44
2018-08-11T22:21:15.953Z,64.75
2018-08-11T22:23:45.862Z,64.64
2018-08-11T22:26:15.766Z,64.69
2018-08-11T22:28:46.040Z,64.29
2018-08-11T22:31:16.392Z,64.13
2018-08-11T22:33:46.381Z,64.00
2018-08-11T22:36:16.733Z,64.24
2018-08-11T22:38:46.719Z,63.81
2018-08-11T22:41:17.360Z,63.59
2018-08-11T22:43:48.190Z,63.36
2018-08-11T22:46:19.199Z,63.83
2018-08-11T22:48:50.004Z,63.74
2018-08-11T22:51:21.684Z,63.91
2018-08-11T22:53:52.191Z,63.87
2018-08-11T22:56:23.494Z,64.12
2018-08-11T22:58:54.309Z,64.45
2018-08-11T23:01:25.209Z,64.16
2018-08-11T23:03:56.223Z,64.28
2018-08-11T23:06:27.617Z,64.44
2018-08-11T23:08:58.172Z,64.47
2018-08-11T23:11:29.080Z,65.34
2018-08-11T23:14:00.299Z,64.86
2018-08-11T23:16:31.143Z,64.75
2018-08-11T23:19:02.009Z,64.75
2018-08-11T23:21:33.358Z,64.87
2018-08-11T23:24:04.198Z,64.75
2018-08-11T23:26:34.191Z,64.76
2018-08-11T23:29:05.231Z,64.80
2018-08-11T23:31:35.718Z,64.83
2018-08-11T23:34:06.525Z,64.86
2018-08-11T23:36:37.121Z,65.30
2018-08-11T23:39:10.296Z,64.96
2018-08-11T23:41:41.090Z,65.22
2018-08-11T23:44:11.359Z,65.06
2018-08-11T23:46:41.286Z,65.39
2018-08-11T23:49:12.085Z,65.32
2018-08-11T23:51:43.394Z,65.65
2018-08-11T23:54:14.049Z,65.23
2018-08-11T23:56:45.385Z,65.93
2018-08-11T23:59:16.001Z,65.98
